sensor_id;sensor_type;location;lat;lon;timestamp;P1;durP1;ratioP1;P2;durP2;ratioP2
73733;SDS011;62039;50.000;9.064;2022-12-20T00:01:43;21.27;;;15.63;;
73733;SDS011;62039;50.000;9.064;2022-12-20T00:04:10;20.63;;;14.07;;
73733;SDS011;62039;50.000;9.064;2022-12-20T00:06:37;22.53;;;14.47;;
73733;SDS011;62039;50.000;9.064;2022-12-20T00:09:05;18.83;;;13.60;;
73733;SDS011;62039;50.000;9.064;2022-12-20T00:11:35;18.00;;;13.23;;
73733;SDS011;62039;50.000;9.064;2022-12-20T00:14:05;17.17;;;12.73;;
73733;SDS011;62039;50.000;9.064;2022-12-20T00:16:32;18.20;;;13.50;;
73733;SDS011;62039;50.000;9.064;2022-12-20T00:18:59;19.93;;;14.17;;
73733;SDS011;62039;50.000;9.064;2022-12-20T00:21:27;17.97;;;13.47;;
73733;SDS011;62039;50.000;9.064;2022-12-20T00:23:54;17.50;;;13.10;;
73733;SDS011;62039;50.000;9.064;2022-12-20T00:26:22;22.93;;;17.17;;
73733;SDS011;62039;50.000;9.064;2022-12-20T00:28:51;21.17;;;15.07;;
73733;SDS011;62039;50.000;9.064;2022-12-20T00:31:19;15.70;;;11.30;;
73733;SDS011;62039;50.000;9.064;2022-12-20T00:33:48;20.93;;;14.37;;
73733;SDS011;62039;50.000;9.064;2022-12-20T00:36:16;20.13;;;13.47;;
73733;SDS011;62039;50.000;9.064;2022-12-20T00:38:44;22.63;;;15.53;;
73733;SDS011;62039;50.000;9.064;2022-12-20T00:41:12;18.93;;;14.23;;
73733;SDS011;62039;50.000;9.064;2022-12-20T00:43:40;23.27;;;15.93;;
73733;SDS011;62039;50.000;9.064;2022-12-20T00:46:07;19.13;;;13.67;;
73733;SDS011;62039;50.000;9.064;2022-12-20T00:48:37;20.90;;;14.80;;
73733;SDS011;62039;50.000;9.064;2022-12-20T00:51:05;19.53;;;13.90;;
73733;SDS011;62039;50.000;9.064;2022-12-20T00:53:33;21.83;;;14.40;;
73733;SDS011;62039;50.000;9.064;2022-12-20T00:56:00;22.13;;;15.00;;
73733;SDS011;62039;50.000;9.064;2022-12-20T00:58:28;19.87;;;13.43;;
73733;SDS011;62039;50.000;9.064;2022-12-20T01:00:55;19.63;;;14.33;;
73733;SDS011;62039;50.000;9.064;2022-12-20T01:03:22;21.77;;;15.00;;
73733;SDS011;62039;50.000;9.064;2022-12-20T01:05:52;17.77;;;12.70;;
73733;SDS011;62039;50.000;9.064;2022-12-20T01:08:19;20.77;;;14.07;;
73733;SDS011;62039;50.000;9.064;2022-12-20T01:10:52;22.13;;;15.50;;
73733;SDS011;62039;50.000;9.064;2022-12-20T01:13:23;19.17;;;13.83;;
73733;SDS011;62039;50.000;9.064;2022-12-20T01:15:50;22.57;;;16.47;;
73733;SDS011;62039;50.000;9.064;2022-12-20T01:18:16;21.80;;;14.77;;
73733;SDS011;62039;50.000;9.064;2022-12-20T01:20:43;17.93;;;13.73;;
73733;SDS011;62039;50.000;9.064;2022-12-20T01:23:11;17.93;;;13.27;;
73733;SDS011;62039;50.000;9.064;2022-12-20T01:25:37;18.80;;;12.83;;
73733;SDS011;62039;50.000;9.064;2022-12-20T01:28:04;19.73;;;14.13;;
73733;SDS011;62039;50.000;9.064;2022-12-20T01:30:30;17.97;;;13.27;;
73733;SDS011;62039;50.000;9.064;2022-12-20T01:32:57;16.13;;;11.63;;
73733;SDS011;62039;50.000;9.064;2022-12-20T01:35:24;15.80;;;11.53;;
73733;SDS011;62039;50.000;9.064;2022-12-20T01:37:50;18.37;;;12.87;;
73733;SDS011;62039;50.000;9.064;2022-12-20T01:40:18;15.33;;;11.40;;
73733;SDS011;62039;50.000;9.064;2022-12-20T01:42:44;16.37;;;11.70;;
73733;SDS011;62039;50.000;9.064;2022-12-20T01:45:12;15.90;;;10.93;;
73733;SDS011;62039;50.000;9.064;2022-12-20T01:47:45;16.77;;;12.07;;
73733;SDS011;62039;50.000;9.064;2022-12-20T01:50:12;15.23;;;11.50;;
73733;SDS011;62039;50.000;9.064;2022-12-20T01:52:39;15.23;;;11.80;;
73733;SDS011;62039;50.000;9.064;2022-12-20T01:55:09;17.50;;;11.87;;
73733;SDS011;62039;50.000;9.064;2022-12-20T01:57:41;18.73;;;12.97;;
73733;SDS011;62039;50.000;9.064;2022-12-20T02:00:11;15.53;;;11.10;;
73733;SDS011;62039;50.000;9.064;2022-12-20T02:02:39;18.33;;;13.53;;
73733;SDS011;62039;50.000;9.064;2022-12-20T02:05:06;18.37;;;11.47;;
73733;SDS011;62039;50.000;9.064;2022-12-20T02:07:34;18.27;;;12.13;;
73733;SDS011;62039;50.000;9.064;2022-12-20T02:10:03;15.90;;;10.73;;
73733;SDS011;62039;50.000;9.064;2022-12-20T02:12:33;17.67;;;11.70;;
73733;SDS011;62039;50.000;9.064;2022-12-20T02:15:10;14.80;;;11.13;;
73733;SDS011;62039;50.000;9.064;2022-12-20T02:17:50;16.87;;;12.50;;
73733;SDS011;62039;50.000;9.064;2022-12-20T02:23:22;17.23;;;11.87;;
73733;SDS011;62039;50.000;9.064;2022-12-20T02:26:31;17.07;;;11.37;;
73733;SDS011;62039;50.000;9.064;2022-12-20T02:29:20;16.40;;;11.43;;
73733;SDS011;62039;50.000;9.064;2022-12-20T02:31:54;17.33;;;11.83;;
73733;SDS011;62039;50.000;9.064;2022-12-20T02:34:25;15.90;;;11.27;;
73733;SDS011;62039;50.000;9.064;2022-12-20T02:36:54;15.43;;;11.10;;
73733;SDS011;62039;50.000;9.064;2022-12-20T02:39:20;16.00;;;11.80;;
73733;SDS011;62039;50.000;9.064;2022-12-20T02:41:50;17.87;;;12.50;;
73733;SDS011;62039;50.000;9.064;2022-12-20T02:44:20;16.00;;;10.93;;
73733;SDS011;62039;50.000;9.064;2022-12-20T02:46:49;16.80;;;11.53;;
73733;SDS011;62039;50.000;9.064;2022-12-20T02:49:20;15.47;;;11.20;;
73733;SDS011;62039;50.000;9.064;2022-12-20T02:51:54;16.63;;;10.87;;
73733;SDS011;62039;50.000;9.064;2022-12-20T02:54:22;16.30;;;11.77;;
73733;SDS011;62039;50.000;9.064;2022-12-20T02:56:50;14.97;;;11.10;;
73733;SDS011;62039;50.000;9.064;2022-12-20T02:59:22;16.80;;;12.23;;
73733;SDS011;62039;50.000;9.064;2022-12-20T03:01:51;18.17;;;12.47;;
73733;SDS011;62039;50.000;9.064;2022-12-20T03:04:22;18.87;;;12.83;;
73733;SDS011;62039;50.000;9.064;2022-12-20T03:06:58;16.40;;;12.03;;
73733;SDS011;62039;50.000;9.064;2022-12-20T03:09:25;15.27;;;11.53;;
73733;SDS011;62039;50.000;9.064;2022-12-20T03:11:53;17.47;;;11.53;;
73733;SDS011;62039;50.000;9.064;2022-12-20T03:14:19;22.77;;;15.80;;
73733;SDS011;62039;50.000;9.064;2022-12-20T03:16:46;24.53;;;15.77;;
73733;SDS011;62039;50.000;9.064;2022-12-20T03:19:13;21.37;;;15.43;;
73733;SDS011;62039;50.000;9.064;2022-12-20T03:21:41;23.97;;;16.03;;
73733;SDS011;62039;50.000;9.064;2022-12-20T03:24:08;22.27;;;15.37;;
73733;SDS011;62039;50.000;9.064;2022-12-20T03:26:35;25.83;;;16.17;;
73733;SDS011;62039;50.000;9.064;2022-12-20T03:29:02;20.67;;;15.53;;
73733;SDS011;62039;50.000;9.064;2022-12-20T03:31:28;21.40;;;14.83;;
73733;SDS011;62039;50.000;9.064;2022-12-20T03:33:55;18.67;;;13.20;;
73733;SDS011;62039;50.000;9.064;2022-12-20T03:36:22;17.47;;;11.90;;
73733;SDS011;62039;50.000;9.064;2022-12-20T03:38:50;16.13;;;11.93;;
73733;SDS011;62039;50.000;9.064;2022-12-20T03:41:17;17.40;;;12.93;;
73733;SDS011;62039;50.000;9.064;2022-12-20T03:43:44;16.90;;;11.70;;
73733;SDS011;62039;50.000;9.064;2022-12-20T03:46:10;13.90;;;10.70;;
73733;SDS011;62039;50.000;9.064;2022-12-20T03:48:37;14.53;;;10.97;;
73733;SDS011;62039;50.000;9.064;2022-12-20T03:51:04;17.13;;;11.53;;
73733;SDS011;62039;50.000;9.064;2022-12-20T03:53:31;14.87;;;11.13;;
73733;SDS011;62039;50.000;9.064;2022-12-20T03:55:59;16.10;;;11.73;;
73733;SDS011;62039;50.000;9.064;2022-12-20T03:58:26;15.93;;;11.70;;
73733;SDS011;62039;50.000;9.064;2022-12-20T04:00:52;17.70;;;12.60;;
73733;SDS011;62039;50.000;9.064;2022-12-20T04:03:19;16.13;;;11.50;;
73733;SDS011;62039;50.000;9.064;2022-12-20T04:05:45;15.37;;;11.87;;
73733;SDS011;62039;50.000;9.064;2022-12-20T04:08:12;16.77;;;11.67;;
73733;SDS011;62039;50.000;9.064;2022-12-20T04:10:39;18.23;;;13.13;;
73733;SDS011;62039;50.000;9.064;2022-12-20T04:13:06;15.30;;;11.47;;
73733;SDS011;62039;50.000;9.064;2022-12-20T04:15:33;13.60;;;10.73;;
73733;SDS011;62039;50.000;9.064;2022-12-20T04:17:59;16.17;;;11.13;;
73733;SDS011;62039;50.000;9.064;2022-12-20T04:20:26;16.13;;;11.93;;
73733;SDS011;62039;50.000;9.064;2022-12-20T04:22:53;17.27;;;12.53;;
73733;SDS011;62039;50.000;9.064;2022-12-20T04:25:19;17.60;;;12.67;;
73733;SDS011;62039;50.000;9.064;2022-12-20T04:27:47;16.93;;;12.57;;
73733;SDS011;62039;50.000;9.064;2022-12-20T04:30:15;16.13;;;12.30;;
73733;SDS011;62039;50.000;9.064;2022-12-20T04:32:41;17.80;;;12.47;;
73733;SDS011;62039;50.000;9.064;2022-12-20T04:35:08;15.43;;;11.17;;
73733;SDS011;62039;50.000;9.064;2022-12-20T04:37:35;14.43;;;11.03;;
73733;SDS011;62039;50.000;9.064;2022-12-20T04:40:02;12.80;;;9.93;;
73733;SDS011;62039;50.000;9.064;2022-12-20T04:42:29;15.30;;;11.73;;
73733;SDS011;62039;50.000;9.064;2022-12-20T04:44:55;14.00;;;10.70;;
73733;SDS011;62039;50.000;9.064;2022-12-20T04:47:23;16.70;;;12.03;;
73733;SDS011;62039;50.000;9.064;2022-12-20T04:49:50;17.20;;;12.43;;
73733;SDS011;62039;50.000;9.064;2022-12-20T04:52:16;19.10;;;13.60;;
73733;SDS011;62039;50.000;9.064;2022-12-20T04:54:43;15.70;;;10.60;;
73733;SDS011;62039;50.000;9.064;2022-12-20T04:57:09;12.67;;;9.90;;
73733;SDS011;62039;50.000;9.064;2022-12-20T04:59:36;13.70;;;10.27;;
73733;SDS011;62039;50.000;9.064;2022-12-20T05:02:02;15.00;;;11.10;;
73733;SDS011;62039;50.000;9.064;2022-12-20T05:04:30;15.93;;;11.43;;
73733;SDS011;62039;50.000;9.064;2022-12-20T05:07:03;14.00;;;10.67;;
73733;SDS011;62039;50.000;9.064;2022-12-20T05:09:29;16.90;;;12.57;;
73733;SDS011;62039;50.000;9.064;2022-12-20T05:11:56;15.13;;;11.33;;
73733;SDS011;62039;50.000;9.064;2022-12-20T05:14:22;16.53;;;11.37;;
73733;SDS011;62039;50.000;9.064;2022-12-20T05:16:49;17.27;;;12.37;;
73733;SDS011;62039;50.000;9.064;2022-12-20T05:19:15;15.03;;;11.10;;
73733;SDS011;62039;50.000;9.064;2022-12-20T05:21:43;15.27;;;11.87;;
73733;SDS011;62039;50.000;9.064;2022-12-20T05:24:09;16.27;;;11.47;;
73733;SDS011;62039;50.000;9.064;2022-12-20T05:26:36;17.10;;;12.33;;
73733;SDS011;62039;50.000;9.064;2022-12-20T05:29:03;15.77;;;11.67;;
73733;SDS011;62039;50.000;9.064;2022-12-20T05:31:30;17.60;;;11.50;;
73733;SDS011;62039;50.000;9.064;2022-12-20T05:33:57;16.00;;;12.07;;
73733;SDS011;62039;50.000;9.064;2022-12-20T05:36:24;14.20;;;11.20;;
73733;SDS011;62039;50.000;9.064;2022-12-20T05:38:52;14.40;;;10.50;;
73733;SDS011;62039;50.000;9.064;2022-12-20T05:41:27;16.27;;;11.23;;
73733;SDS011;62039;50.000;9.064;2022-12-20T05:43:53;14.30;;;11.10;;
73733;SDS011;62039;50.000;9.064;2022-12-20T05:46:20;15.30;;;10.90;;
73733;SDS011;62039;50.000;9.064;2022-12-20T05:48:46;14.17;;;11.03;;
73733;SDS011;62039;50.000;9.064;2022-12-20T05:51:13;14.83;;;10.90;;
73733;SDS011;62039;50.000;9.064;2022-12-20T05:53:39;17.70;;;12.93;;
73733;SDS011;62039;50.000;9.064;2022-12-20T05:56:07;15.23;;;11.73;;
73733;SDS011;62039;50.000;9.064;2022-12-20T05:58:34;15.07;;;10.63;;
73733;SDS011;62039;50.000;9.064;2022-12-20T06:01:00;12.23;;;9.77;;
73733;SDS011;62039;50.000;9.064;2022-12-20T06:03:27;16.27;;;11.70;;
73733;SDS011;62039;50.000;9.064;2022-12-20T06:05:54;16.30;;;11.33;;
73733;SDS011;62039;50.000;9.064;2022-12-20T06:08:20;16.63;;;11.57;;
73733;SDS011;62039;50.000;9.064;2022-12-20T06:10:47;16.13;;;11.77;;
73733;SDS011;62039;50.000;9.064;2022-12-20T06:13:15;17.07;;;12.47;;
73733;SDS011;62039;50.000;9.064;2022-12-20T06:15:42;17.83;;;12.70;;
73733;SDS011;62039;50.000;9.064;2022-12-20T06:18:09;13.77;;;11.37;;
73733;SDS011;62039;50.000;9.064;2022-12-20T06:20:35;17.43;;;11.47;;
73733;SDS011;62039;50.000;9.064;2022-12-20T06:23:02;14.60;;;10.80;;
73733;SDS011;62039;50.000;9.064;2022-12-20T06:25:29;14.83;;;11.03;;
73733;SDS011;62039;50.000;9.064;2022-12-20T06:27:56;17.23;;;11.27;;
73733;SDS011;62039;50.000;9.064;2022-12-20T06:30:24;12.80;;;9.97;;
73733;SDS011;62039;50.000;9.064;2022-12-20T06:32:58;13.67;;;10.43;;
73733;SDS011;62039;50.000;9.064;2022-12-20T06:35:25;11.83;;;9.30;;
73733;SDS011;62039;50.000;9.064;2022-12-20T06:37:52;14.17;;;10.27;;
73733;SDS011;62039;50.000;9.064;2022-12-20T06:40:18;15.07;;;11.50;;
73733;SDS011;62039;50.000;9.064;2022-12-20T06:42:45;14.30;;;10.90;;
73733;SDS011;62039;50.000;9.064;2022-12-20T06:45:12;17.57;;;12.80;;
73733;SDS011;62039;50.000;9.064;2022-12-20T06:47:40;14.83;;;11.03;;
73733;SDS011;62039;50.000;9.064;2022-12-20T06:50:07;13.37;;;11.30;;
73733;SDS011;62039;50.000;9.064;2022-12-20T06:52:33;15.67;;;11.43;;
73733;SDS011;62039;50.000;9.064;2022-12-20T06:55:00;16.83;;;12.33;;
73733;SDS011;62039;50.000;9.064;2022-12-20T06:57:27;15.17;;;11.33;;
73733;SDS011;62039;50.000;9.064;2022-12-20T06:59:53;18.03;;;13.50;;
73733;SDS011;62039;50.000;9.064;2022-12-20T07:02:20;14.93;;;13.00;;
73733;SDS011;62039;50.000;9.064;2022-12-20T07:04:48;16.67;;;11.40;;
73733;SDS011;62039;50.000;9.064;2022-12-20T07:07:14;15.47;;;11.70;;
73733;SDS011;62039;50.000;9.064;2022-12-20T07:09:41;18.30;;;14.03;;
73733;SDS011;62039;50.000;9.064;2022-12-20T07:12:08;20.20;;;14.50;;
73733;SDS011;62039;50.000;9.064;2022-12-20T07:14:35;19.27;;;14.33;;
73733;SDS011;62039;50.000;9.064;2022-12-20T07:17:02;17.50;;;14.07;;
73733;SDS011;62039;50.000;9.064;2022-12-20T07:19:29;17.23;;;12.83;;
73733;SDS011;62039;50.000;9.064;2022-12-20T07:21:57;19.73;;;14.53;;
73733;SDS011;62039;50.000;9.064;2022-12-20T07:24:23;22.60;;;15.03;;
73733;SDS011;62039;50.000;9.064;2022-12-20T07:26:51;19.13;;;14.17;;
73733;SDS011;62039;50.000;9.064;2022-12-20T07:29:17;16.97;;;12.60;;
73733;SDS011;62039;50.000;9.064;2022-12-20T07:31:44;18.90;;;13.73;;
73733;SDS011;62039;50.000;9.064;2022-12-20T07:34:11;17.37;;;12.27;;
73733;SDS011;62039;50.000;9.064;2022-12-20T07:36:37;21.60;;;16.33;;
73733;SDS011;62039;50.000;9.064;2022-12-20T07:39:05;19.57;;;14.97;;
73733;SDS011;62039;50.000;9.064;2022-12-20T07:41:32;18.03;;;13.47;;
73733;SDS011;62039;50.000;9.064;2022-12-20T07:43:58;19.27;;;14.93;;
73733;SDS011;62039;50.000;9.064;2022-12-20T07:46:25;18.93;;;13.70;;
73733;SDS011;62039;50.000;9.064;2022-12-20T07:48:53;20.30;;;15.47;;
73733;SDS011;62039;50.000;9.064;2022-12-20T07:51:20;17.80;;;13.97;;
73733;SDS011;62039;50.000;9.064;2022-12-20T07:53:51;17.10;;;13.87;;
73733;SDS011;62039;50.000;9.064;2022-12-20T07:56:22;13.63;;;10.67;;
73733;SDS011;62039;50.000;9.064;2022-12-20T07:58:49;14.53;;;10.50;;
73733;SDS011;62039;50.000;9.064;2022-12-20T08:01:17;12.47;;;9.33;;
73733;SDS011;62039;50.000;9.064;2022-12-20T08:03:46;12.43;;;9.57;;
73733;SDS011;62039;50.000;9.064;2022-12-20T08:06:16;13.77;;;11.03;;
73733;SDS011;62039;50.000;9.064;2022-12-20T08:08:44;12.53;;;9.37;;
73733;SDS011;62039;50.000;9.064;2022-12-20T08:11:14;13.20;;;10.63;;
73733;SDS011;62039;50.000;9.064;2022-12-20T08:13:44;15.17;;;11.37;;
73733;SDS011;62039;50.000;9.064;2022-12-20T08:16:13;17.17;;;12.57;;
73733;SDS011;62039;50.000;9.064;2022-12-20T08:18:40;15.40;;;11.07;;
73733;SDS011;62039;50.000;9.064;2022-12-20T08:21:07;15.87;;;12.33;;
73733;SDS011;62039;50.000;9.064;2022-12-20T08:23:33;18.47;;;12.50;;
73733;SDS011;62039;50.000;9.064;2022-12-20T08:26:00;15.27;;;11.20;;
73733;SDS011;62039;50.000;9.064;2022-12-20T08:28:27;12.63;;;10.17;;
73733;SDS011;62039;50.000;9.064;2022-12-20T08:31:00;14.87;;;11.30;;
73733;SDS011;62039;50.000;9.064;2022-12-20T08:33:27;15.13;;;10.90;;
73733;SDS011;62039;50.000;9.064;2022-12-20T08:35:56;15.90;;;13.07;;
73733;SDS011;62039;50.000;9.064;2022-12-20T08:38:24;16.67;;;13.00;;
73733;SDS011;62039;50.000;9.064;2022-12-20T08:40:51;17.50;;;12.40;;
73733;SDS011;62039;50.000;9.064;2022-12-20T08:43:17;18.47;;;13.90;;
73733;SDS011;62039;50.000;9.064;2022-12-20T08:45:44;20.57;;;14.57;;
73733;SDS011;62039;50.000;9.064;2022-12-20T08:48:12;21.23;;;14.87;;
73733;SDS011;62039;50.000;9.064;2022-12-20T08:50:38;23.10;;;16.13;;
73733;SDS011;62039;50.000;9.064;2022-12-20T08:53:05;18.57;;;13.70;;
73733;SDS011;62039;50.000;9.064;2022-12-20T08:55:31;16.77;;;13.30;;
73733;SDS011;62039;50.000;9.064;2022-12-20T08:57:58;13.40;;;11.13;;
73733;SDS011;62039;50.000;9.064;2022-12-20T09:00:24;17.30;;;12.60;;
73733;SDS011;62039;50.000;9.064;2022-12-20T09:02:53;15.20;;;11.00;;
73733;SDS011;62039;50.000;9.064;2022-12-20T09:05:22;16.87;;;12.33;;
73733;SDS011;62039;50.000;9.064;2022-12-20T09:07:48;15.07;;;12.13;;
73733;SDS011;62039;50.000;9.064;2022-12-20T09:10:15;14.00;;;11.07;;
73733;SDS011;62039;50.000;9.064;2022-12-20T09:12:41;16.13;;;11.90;;
73733;SDS011;62039;50.000;9.064;2022-12-20T09:15:08;15.03;;;11.70;;
73733;SDS011;62039;50.000;9.064;2022-12-20T09:17:35;13.27;;;10.50;;
73733;SDS011;62039;50.000;9.064;2022-12-20T09:20:02;12.90;;;10.43;;
73733;SDS011;62039;50.000;9.064;2022-12-20T09:22:31;14.00;;;11.00;;
73733;SDS011;62039;50.000;9.064;2022-12-20T09:24:57;14.03;;;10.97;;
73733;SDS011;62039;50.000;9.064;2022-12-20T09:27:24;17.27;;;12.73;;
73733;SDS011;62039;50.000;9.064;2022-12-20T09:29:50;16.83;;;13.33;;
73733;SDS011;62039;50.000;9.064;2022-12-20T09:32:17;15.23;;;11.97;;
73733;SDS011;62039;50.000;9.064;2022-12-20T09:34:43;15.63;;;11.93;;
73733;SDS011;62039;50.000;9.064;2022-12-20T09:37:10;15.07;;;11.63;;
73733;SDS011;62039;50.000;9.064;2022-12-20T09:39:38;15.80;;;12.03;;
73733;SDS011;62039;50.000;9.064;2022-12-20T09:42:06;13.50;;;10.57;;
73733;SDS011;62039;50.000;9.064;2022-12-20T09:44:33;13.63;;;11.03;;
73733;SDS011;62039;50.000;9.064;2022-12-20T09:47:04;15.00;;;11.73;;
73733;SDS011;62039;50.000;9.064;2022-12-20T09:49:38;14.73;;;11.00;;
73733;SDS011;62039;50.000;9.064;2022-12-20T09:52:13;16.47;;;12.67;;
73733;SDS011;62039;50.000;9.064;2022-12-20T09:54:53;16.33;;;12.50;;
73733;SDS011;62039;50.000;9.064;2022-12-20T09:57:28;16.73;;;12.40;;
73733;SDS011;62039;50.000;9.064;2022-12-20T10:00:08;19.60;;;14.10;;
73733;SDS011;62039;50.000;9.064;2022-12-20T10:02:38;18.60;;;13.43;;
73733;SDS011;62039;50.000;9.064;2022-12-20T10:05:26;16.17;;;13.43;;
73733;SDS011;62039;50.000;9.064;2022-12-20T10:08:08;19.53;;;14.80;;
73733;SDS011;62039;50.000;9.064;2022-12-20T10:10:47;18.70;;;14.43;;
73733;SDS011;62039;50.000;9.064;2022-12-20T10:13:22;18.30;;;15.17;;
73733;SDS011;62039;50.000;9.064;2022-12-20T10:15:59;19.90;;;15.23;;
73733;SDS011;62039;50.000;9.064;2022-12-20T10:18:39;19.43;;;14.70;;
73733;SDS011;62039;50.000;9.064;2022-12-20T10:21:15;17.97;;;13.87;;
73733;SDS011;62039;50.000;9.064;2022-12-20T10:23:53;15.17;;;12.87;;
73733;SDS011;62039;50.000;9.064;2022-12-20T10:26:26;16.93;;;12.33;;
73733;SDS011;62039;50.000;9.064;2022-12-20T10:28:53;17.83;;;14.03;;
73733;SDS011;62039;50.000;9.064;2022-12-20T10:31:20;16.63;;;13.57;;
73733;SDS011;62039;50.000;9.064;2022-12-20T10:33:47;19.40;;;15.23;;
73733;SDS011;62039;50.000;9.064;2022-12-20T10:36:18;17.13;;;13.37;;
73733;SDS011;62039;50.000;9.064;2022-12-20T10:38:46;17.07;;;13.00;;
73733;SDS011;62039;50.000;9.064;2022-12-20T10:41:15;17.87;;;15.07;;
73733;SDS011;62039;50.000;9.064;2022-12-20T10:43:50;17.17;;;12.70;;
73733;SDS011;62039;50.000;9.064;2022-12-20T10:46:19;14.90;;;12.37;;
73733;SDS011;62039;50.000;9.064;2022-12-20T10:48:47;16.30;;;12.17;;
73733;SDS011;62039;50.000;9.064;2022-12-20T10:51:15;15.67;;;12.20;;
73733;SDS011;62039;50.000;9.064;2022-12-20T10:53:52;19.10;;;14.53;;
73733;SDS011;62039;50.000;9.064;2022-12-20T10:56:22;20.73;;;12.80;;
73733;SDS011;62039;50.000;9.064;2022-12-20T10:58:52;15.30;;;11.97;;
73733;SDS011;62039;50.000;9.064;2022-12-20T11:01:21;16.27;;;11.57;;
73733;SDS011;62039;50.000;9.064;2022-12-20T11:03:52;14.00;;;11.60;;
73733;SDS011;62039;50.000;9.064;2022-12-20T11:06:21;15.23;;;11.47;;
73733;SDS011;62039;50.000;9.064;2022-12-20T11:08:48;14.47;;;10.63;;
73733;SDS011;62039;50.000;9.064;2022-12-20T11:11:25;13.43;;;10.33;;
73733;SDS011;62039;50.000;9.064;2022-12-20T11:13:53;15.97;;;12.97;;
73733;SDS011;62039;50.000;9.064;2022-12-20T11:16:38;19.33;;;15.17;;
73733;SDS011;62039;50.000;9.064;2022-12-20T11:19:09;16.20;;;13.30;;
73733;SDS011;62039;50.000;9.064;2022-12-20T11:21:50;16.50;;;12.50;;
73733;SDS011;62039;50.000;9.064;2022-12-20T11:24:26;14.00;;;11.90;;
73733;SDS011;62039;50.000;9.064;2022-12-20T11:27:04;15.00;;;10.77;;
73733;SDS011;62039;50.000;9.064;2022-12-20T11:29:46;16.47;;;12.10;;
73733;SDS011;62039;50.000;9.064;2022-12-20T11:32:28;15.13;;;11.53;;
73733;SDS011;62039;50.000;9.064;2022-12-20T11:35:16;14.87;;;11.40;;
73733;SDS011;62039;50.000;9.064;2022-12-20T11:37:48;15.80;;;12.03;;
73733;SDS011;62039;50.000;9.064;2022-12-20T11:40:25;13.00;;;10.60;;
73733;SDS011;62039;50.000;9.064;2022-12-20T11:45:57;15.73;;;12.63;;
73733;SDS011;62039;50.000;9.064;2022-12-20T11:48:36;13.83;;;11.13;;
73733;SDS011;62039;50.000;9.064;2022-12-20T11:51:10;14.63;;;11.00;;
73733;SDS011;62039;50.000;9.064;2022-12-20T11:53:52;13.73;;;10.87;;
73733;SDS011;62039;50.000;9.064;2022-12-20T11:56:25;15.67;;;11.57;;
73733;SDS011;62039;50.000;9.064;2022-12-20T11:58:56;13.77;;;10.87;;
73733;SDS011;62039;50.000;9.064;2022-12-20T12:01:30;16.23;;;12.47;;
73733;SDS011;62039;50.000;9.064;2022-12-20T12:04:03;15.67;;;13.23;;
73733;SDS011;62039;50.000;9.064;2022-12-20T12:06:35;13.33;;;11.50;;
73733;SDS011;62039;50.000;9.064;2022-12-20T12:09:07;13.50;;;11.20;;
73733;SDS011;62039;50.000;9.064;2022-12-20T12:11:41;14.40;;;10.87;;
73733;SDS011;62039;50.000;9.064;2022-12-20T12:14:34;14.83;;;12.80;;
73733;SDS011;62039;50.000;9.064;2022-12-20T12:17:12;17.83;;;13.30;;
73733;SDS011;62039;50.000;9.064;2022-12-20T12:19:45;15.40;;;11.87;;
73733;SDS011;62039;50.000;9.064;2022-12-20T12:22:15;15.77;;;12.33;;
73733;SDS011;62039;50.000;9.064;2022-12-20T12:24:48;21.53;;;17.50;;
73733;SDS011;62039;50.000;9.064;2022-12-20T12:27:21;16.30;;;13.43;;
73733;SDS011;62039;50.000;9.064;2022-12-20T12:29:49;17.80;;;14.10;;
73733;SDS011;62039;50.000;9.064;2022-12-20T12:32:18;16.37;;;13.47;;
73733;SDS011;62039;50.000;9.064;2022-12-20T12:34:54;15.70;;;11.90;;
73733;SDS011;62039;50.000;9.064;2022-12-20T12:40:32;15.70;;;12.20;;
73733;SDS011;62039;50.000;9.064;2022-12-20T12:46:15;16.00;;;12.83;;
73733;SDS011;62039;50.000;9.064;2022-12-20T12:48:47;14.07;;;11.60;;
73733;SDS011;62039;50.000;9.064;2022-12-20T12:51:21;14.43;;;11.60;;
73733;SDS011;62039;50.000;9.064;2022-12-20T12:53:52;14.73;;;11.47;;
73733;SDS011;62039;50.000;9.064;2022-12-20T12:59:20;16.70;;;13.73;;
73733;SDS011;62039;50.000;9.064;2022-12-20T13:01:50;16.83;;;13.13;;
73733;SDS011;62039;50.000;9.064;2022-12-20T13:04:24;13.97;;;11.47;;
73733;SDS011;62039;50.000;9.064;2022-12-20T13:06:57;15.33;;;12.30;;
73733;SDS011;62039;50.000;9.064;2022-12-20T13:09:35;14.30;;;11.20;;
73733;SDS011;62039;50.000;9.064;2022-12-20T13:18:31;12.73;;;9.97;;
73733;SDS011;62039;50.000;9.064;2022-12-20T13:21:25;15.13;;;10.87;;
73733;SDS011;62039;50.000;9.064;2022-12-20T13:27:02;14.03;;;11.73;;
73733;SDS011;62039;50.000;9.064;2022-12-20T13:29:50;17.73;;;14.27;;
73733;SDS011;62039;50.000;9.064;2022-12-20T13:36:00;17.23;;;13.83;;
73733;SDS011;62039;50.000;9.064;2022-12-20T13:38:38;16.07;;;12.43;;
73733;SDS011;62039;50.000;9.064;2022-12-20T13:41:18;13.30;;;11.13;;
73733;SDS011;62039;50.000;9.064;2022-12-20T13:44:00;21.63;;;16.30;;
73733;SDS011;62039;50.000;9.064;2022-12-20T13:46:39;18.90;;;15.07;;
73733;SDS011;62039;50.000;9.064;2022-12-20T13:49:09;23.47;;;18.87;;
73733;SDS011;62039;50.000;9.064;2022-12-20T13:51:37;22.10;;;17.20;;
73733;SDS011;62039;50.000;9.064;2022-12-20T13:54:06;16.60;;;13.77;;
73733;SDS011;62039;50.000;9.064;2022-12-20T13:56:41;18.33;;;15.13;;
73733;SDS011;62039;50.000;9.064;2022-12-20T13:59:12;15.90;;;12.50;;
73733;SDS011;62039;50.000;9.064;2022-12-20T14:01:48;17.27;;;12.80;;
73733;SDS011;62039;50.000;9.064;2022-12-20T14:04:16;17.63;;;13.57;;
73733;SDS011;62039;50.000;9.064;2022-12-20T14:06:43;15.90;;;12.67;;
73733;SDS011;62039;50.000;9.064;2022-12-20T14:09:27;15.37;;;11.40;;
73733;SDS011;62039;50.000;9.064;2022-12-20T14:12:01;16.20;;;13.43;;
73733;SDS011;62039;50.000;9.064;2022-12-20T14:14:28;16.33;;;12.47;;
73733;SDS011;62039;50.000;9.064;2022-12-20T14:16:55;15.90;;;12.97;;
73733;SDS011;62039;50.000;9.064;2022-12-20T14:19:39;14.47;;;11.57;;
73733;SDS011;62039;50.000;9.064;2022-12-20T14:22:06;14.77;;;11.30;;
73733;SDS011;62039;50.000;9.064;2022-12-20T14:24:36;14.27;;;11.43;;
73733;SDS011;62039;50.000;9.064;2022-12-20T14:27:04;15.10;;;11.77;;
73733;SDS011;62039;50.000;9.064;2022-12-20T14:29:31;13.17;;;10.90;;
73733;SDS011;62039;50.000;9.064;2022-12-20T14:31:58;13.67;;;10.77;;
73733;SDS011;62039;50.000;9.064;2022-12-20T14:34:25;16.27;;;12.90;;
73733;SDS011;62039;50.000;9.064;2022-12-20T14:39:56;14.33;;;11.40;;
73733;SDS011;62039;50.000;9.064;2022-12-20T14:42:27;11.00;;;9.73;;
73733;SDS011;62039;50.000;9.064;2022-12-20T14:45:02;13.77;;;11.27;;
73733;SDS011;62039;50.000;9.064;2022-12-20T14:47:30;13.83;;;11.53;;
73733;SDS011;62039;50.000;9.064;2022-12-20T14:49:57;16.63;;;11.63;;
73733;SDS011;62039;50.000;9.064;2022-12-20T14:52:26;13.40;;;10.67;;
73733;SDS011;62039;50.000;9.064;2022-12-20T14:54:57;17.17;;;11.43;;
73733;SDS011;62039;50.000;9.064;2022-12-20T14:57:42;12.27;;;9.93;;
73733;SDS011;62039;50.000;9.064;2022-12-20T15:00:12;11.73;;;9.77;;
73733;SDS011;62039;50.000;9.064;2022-12-20T15:02:47;16.13;;;12.37;;
73733;SDS011;62039;50.000;9.064;2022-12-20T15:05:37;14.17;;;11.17;;
73733;SDS011;62039;50.000;9.064;2022-12-20T15:08:08;12.77;;;9.87;;